createdAt,value
2022-08-21T00:02:17.460Z,101841.69
2022-08-21T00:04:54.568Z,101827.84
2022-08-21T00:07:27.330Z,101830.94
2022-08-21T00:09:59.872Z,101823.25
2022-08-21T00:12:28.831Z,101820.56
2022-08-21T00:14:58.209Z,101822.81
2022-08-21T00:17:28.511Z,101831.63
2022-08-21T00:19:58.411Z,101825.00
2022-08-21T00:22:29.436Z,101814.81
2022-08-21T00:24:58.308Z,101815.38
2022-08-21T00:27:27.054Z,101822.84
2022-08-21T00:29:56.515Z,101812.44
2022-08-21T00:32:28.575Z,101805.16
2022-08-21T00:34:59.184Z,101809.06
2022-08-21T00:37:28.649Z,101814.50
2022-08-21T00:39:59.215Z,101807.78
2022-08-21T00:42:32.881Z,101805.84
2022-08-21T00:45:02.422Z,101809.53
2022-08-21T00:47:34.104Z,101820.81
2022-08-21T00:50:03.886Z,101792.19
2022-08-21T00:52:37.049Z,101801.16
2022-08-21T00:55:09.988Z,101805.19
2022-08-21T00:57:46.015Z,101805.19
2022-08-21T01:00:23.854Z,101802.34
2022-08-21T01:03:00.721Z,101800.94
2022-08-21T01:05:30.115Z,101812.22
2022-08-21T01:08:00.387Z,101797.38
2022-08-21T01:10:30.367Z,101812.69
2022-08-21T01:13:00.615Z,101812.13
2022-08-21T01:15:41.277Z,101809.09
2022-08-21T01:18:15.949Z,101809.19
2022-08-21T01:20:59.428Z,101802.16
2022-08-21T01:23:28.680Z,101820.00
2022-08-21T01:25:57.494Z,101821.66
2022-08-21T01:28:26.732Z,101824.91
2022-08-21T01:30:57.191Z,101819.91
2022-08-21T01:33:27.464Z,101811.28
2022-08-21T01:35:56.681Z,101820.03
2022-08-21T01:38:27.671Z,101809.84
2022-08-21T01:40:58.683Z,101811.69
2022-08-21T01:43:30.709Z,101815.75
2022-08-21T01:46:08.625Z,101818.22
2022-08-21T01:48:38.612Z,101825.41
2022-08-21T01:51:08.445Z,101806.69
2022-08-21T01:53:40.340Z,101808.31
2022-08-21T01:56:13.906Z,101804.13
2022-08-21T01:58:44.225Z,101804.19
2022-08-21T02:01:14.929Z,101811.34
2022-08-21T02:03:44.597Z,101795.44
2022-08-21T02:06:19.232Z,101792.44
2022-08-21T02:08:51.473Z,101783.63
2022-08-21T02:11:21.615Z,101792.59
2022-08-21T02:13:50.332Z,101794.22
2022-08-21T02:16:19.663Z,101775.25
2022-08-21T02:18:49.242Z,101783.94
2022-08-21T02:21:17.886Z,101788.16
2022-08-21T02:23:48.536Z,101790.53
2022-08-21T02:26:17.956Z,101784.91
2022-08-21T02:28:47.436Z,101770.50
2022-08-21T02:31:17.688Z,101787.81
2022-08-21T02:33:46.912Z,101789.78
2022-08-21T02:36:16.393Z,101790.09
2022-08-21T02:38:46.026Z,101781.09
2022-08-21T02:41:20.454Z,101773.72
2022-08-21T02:43:49.797Z,101769.72
2022-08-21T02:46:22.378Z,101775.38
2022-08-21T02:48:51.234Z,101785.00
2022-08-21T02:51:23.998Z,101770.38
2022-08-21T02:53:52.725Z,101764.63
2022-08-21T02:56:24.155Z,101781.94
2022-08-21T02:58:57.708Z,101761.06
2022-08-21T03:01:30.263Z,101768.31
2022-08-21T03:03:59.138Z,101771.75
2022-08-21T03:06:28.230Z,101775.97
2022-08-21T03:08:57.729Z,101791.59
2022-08-21T03:11:29.734Z,101788.22
2022-08-21T03:13:59.357Z,101779.66
2022-08-21T03:16:34.377Z,101773.47
2022-08-21T03:19:05.832Z,101756.94
2022-08-21T03:21:35.961Z,101762.47
2022-08-21T03:24:08.052Z,101763.44
2022-08-21T03:26:38.450Z,101755.44
2022-08-21T03:29:10.949Z,101756.41
2022-08-21T03:31:40.683Z,101740.06
2022-08-21T03:34:09.758Z,101755.94
2022-08-21T03:36:38.238Z,101753.22
2022-08-21T03:39:08.429Z,101739.72
2022-08-21T03:41:41.778Z,101749.88
2022-08-21T03:44:10.905Z,101751.53
2022-08-21T03:46:40.080Z,101746.28
2022-08-21T03:49:10.332Z,101744.25
2022-08-21T03:51:38.795Z,101746.72
2022-08-21T03:54:07.953Z,101747.69
2022-08-21T03:56:38.533Z,101755.28
2022-08-21T03:59:07.557Z,101742.50
2022-08-21T04:01:37.454Z,101756.44
2022-08-21T04:04:07.492Z,101742.72
2022-08-21T04:06:38.021Z,101749.19
2022-08-21T04:09:07.656Z,101748.13
2022-08-21T04:11:40.199Z,101747.38
2022-08-21T04:14:08.912Z,101747.75
2022-08-21T04:16:40.342Z,101757.38
2022-08-21T04:19:10.119Z,101770.34
2022-08-21T04:21:40.675Z,101770.06
2022-08-21T04:24:11.661Z,101780.59
2022-08-21T04:26:43.385Z,101773.91
2022-08-21T04:29:14.714Z,101764.72
2022-08-21T04:31:44.795Z,101783.34
2022-08-21T04:34:15.975Z,101773.69
2022-08-21T04:36:45.172Z,101782.19
2022-08-21T04:39:14.102Z,101774.91
2022-08-21T04:41:46.067Z,101781.69
2022-08-21T04:44:15.937Z,101775.91
2022-08-21T04:46:45.252Z,101792.25
2022-08-21T04:49:13.825Z,101796.91
2022-08-21T04:51:43.290Z,101805.94
2022-08-21T04:54:17.386Z,101802.28
2022-08-21T04:56:54.840Z,101792.63
2022-08-21T04:59:27.250Z,101788.91
2022-08-21T05:01:57.711Z,101805.69
2022-08-21T05:04:34.874Z,101795.63
2022-08-21T05:07:11.930Z,101797.78
2022-08-21T05:09:41.837Z,101793.53
2022-08-21T05:12:13.379Z,101796.78
2022-08-21T05:14:43.406Z,101804.19
2022-08-21T05:17:14.211Z,101791.47
2022-08-21T05:19:43.650Z,101797.69
2022-08-21T05:22:12.511Z,101796.84
2022-08-21T05:24:42.487Z,101799.69
2022-08-21T05:27:14.720Z,101807.63
2022-08-21T05:29:47.706Z,101805.63
2022-08-21T05:32:17.160Z,101808.44
2022-08-21T05:34:45.854Z,101806.22
2022-08-21T05:37:16.512Z,101812.56
2022-08-21T05:40:20.702Z,101816.91
2022-08-21T05:42:36.512Z,101812.75
2022-08-21T05:45:06.327Z,101816.47
2022-08-21T05:47:35.248Z,101814.84
2022-08-21T05:50:06.540Z,101796.53
2022-08-21T05:52:35.544Z,101804.19
2022-08-21T05:55:05.700Z,101804.56
2022-08-21T05:57:36.786Z,101806.25
2022-08-21T06:00:14.414Z,101808.97
2022-08-21T06:02:43.958Z,101800.00
2022-08-21T06:05:13.433Z,101789.75
2022-08-21T06:07:46.280Z,101782.81
2022-08-21T06:10:16.200Z,101788.88
2022-08-21T06:12:47.427Z,101784.03
2022-08-21T06:15:16.218Z,101792.41
2022-08-21T06:17:46.737Z,101795.06
2022-08-21T06:20:16.044Z,101786.84
2022-08-21T06:22:44.898Z,101787.41
2022-08-21T06:25:14.146Z,101785.56
2022-08-21T06:27:44.067Z,101784.75
2022-08-21T06:30:16.172Z,101782.97
2022-08-21T06:32:44.893Z,101774.41
2022-08-21T06:35:14.828Z,101782.25
2022-08-21T06:37:44.012Z,101778.03
2022-08-21T06:40:14.341Z,101782.44
2022-08-21T06:42:43.071Z,101787.25
2022-08-21T06:45:14.575Z,101779.84
2022-08-21T06:47:43.574Z,101772.44
2022-08-21T06:50:12.482Z,101781.09
2022-08-21T06:52:43.974Z,101779.38
2022-08-21T06:55:22.217Z,101772.09
2022-08-21T06:57:54.383Z,101767.47
2022-08-21T07:00:25.364Z,101772.09
2022-08-21T07:03:06.792Z,101767.38
2022-08-21T07:05:35.701Z,101770.66
2022-08-21T07:08:05.097Z,101780.28
2022-08-21T07:10:33.972Z,101768.75
2022-08-21T07:13:03.170Z,101765.75
2022-08-21T07:15:34.201Z,101762.91
2022-08-21T07:18:03.409Z,101776.44
2022-08-21T07:20:33.628Z,101761.72
2022-08-21T07:23:07.858Z,101758.03
2022-08-21T07:25:37.280Z,101765.03
2022-08-21T07:28:06.882Z,101761.13
2022-08-21T07:30:38.306Z,101756.81
2022-08-21T07:33:06.984Z,101756.41
2022-08-21T07:35:38.001Z,101757.44
2022-08-21T07:38:07.221Z,101755.72
2022-08-21T07:40:35.726Z,101751.13
2022-08-21T07:43:05.126Z,101748.44
2022-08-21T07:45:34.724Z,101754.69
2022-08-21T07:48:06.062Z,101754.91
2022-08-21T07:50:35.983Z,101757.41
2022-08-21T07:53:06.459Z,101758.72
2022-08-21T07:55:35.315Z,101755.84
2022-08-21T07:58:04.348Z,101744.19
2022-08-21T08:00:33.866Z,101753.81
2022-08-21T08:03:04.684Z,101745.91
2022-08-21T08:05:38.322Z,101750.78
2022-08-21T08:08:07.986Z,101740.38
2022-08-21T08:10:37.222Z,101731.69
2022-08-21T08:13:10.431Z,101726.72
2022-08-21T08:15:47.665Z,101730.13
2022-08-21T08:18:19.201Z,101725.72
2022-08-21T08:20:50.346Z,101732.81
2022-08-21T08:23:19.415Z,101722.78
2022-08-21T08:25:48.074Z,101732.81
2022-08-21T08:34:12.922Z,101714.06
2022-08-21T08:36:52.998Z,101707.91
2022-08-21T08:39:26.414Z,101711.47
2022-08-21T08:42:32.730Z,101710.72
2022-08-21T08:45:05.237Z,101711.56
2022-08-21T08:47:43.040Z,101708.69
2022-08-21T08:50:19.869Z,101716.47
2022-08-21T08:52:54.454Z,101700.41
2022-08-21T08:55:31.182Z,101701.97
2022-08-21T08:58:03.616Z,101698.94
2022-08-21T09:00:35.121Z,101697.69
2022-08-21T09:03:06.562Z,101691.22
2022-08-21T09:05:51.044Z,101699.66
2022-08-21T09:08:50.844Z,101681.09
2022-08-21T09:11:31.393Z,101684.69
2022-08-21T09:14:16.651Z,101688.03
2022-08-21T09:17:02.588Z,101686.91
2022-08-21T09:19:58.017Z,101680.34
2022-08-21T09:22:51.452Z,101677.91
2022-08-21T09:25:25.013Z,101687.19
2022-08-21T09:27:58.193Z,101684.91
2022-08-21T09:30:33.219Z,101683.28
2022-08-21T09:33:02.336Z,101679.59
2022-08-21T09:35:33.029Z,101685.81
2022-08-21T09:38:14.237Z,101689.53
2022-08-21T09:40:47.560Z,101682.84
2022-08-21T09:43:22.971Z,101687.34
2022-08-21T09:46:11.284Z,101688.50
2022-08-21T09:48:48.633Z,101687.16
2022-08-21T09:51:24.227Z,101686.13
2022-08-21T09:54:15.161Z,101682.66
2022-08-21T09:57:18.259Z,101680.44
2022-08-21T09:59:54.881Z,101678.19
2022-08-21T10:02:32.287Z,101684.06
2022-08-21T10:07:47.811Z,101672.03
2022-08-21T10:10:27.747Z,101672.41
2022-08-21T10:13:24.968Z,101677.53
2022-08-21T10:16:32.163Z,101684.25
2022-08-21T10:19:18.959Z,101681.63
2022-08-21T10:22:02.885Z,101669.19
2022-08-21T10:24:40.953Z,101675.31
2022-08-21T10:27:23.695Z,101677.91
2022-08-21T10:30:08.229Z,101671.69
2022-08-21T10:33:03.702Z,101664.34
2022-08-21T10:35:51.303Z,101668.22
2022-08-21T10:39:25.985Z,101674.06
2022-08-21T10:45:37.362Z,101671.19
2022-08-21T10:48:09.756Z,101662.31
2022-08-21T10:50:47.191Z,101664.72
2022-08-21T10:53:43.540Z,101661.88
2022-08-21T10:56:19.929Z,101656.09
2022-08-21T10:59:04.210Z,101660.91
2022-08-21T11:01:50.602Z,101656.97
2022-08-21T11:04:26.292Z,101649.91
2022-08-21T11:07:17.286Z,101655.06
2022-08-21T11:09:50.129Z,101647.09
2022-08-21T11:12:28.130Z,101648.16
2022-08-21T11:15:02.726Z,101653.59
2022-08-21T11:17:40.593Z,101649.66
2022-08-21T11:20:17.418Z,101650.03
2022-08-21T11:23:01.511Z,101640.25
2022-08-21T11:25:37.658Z,101642.22
2022-08-21T11:28:15.119Z,101653.97
2022-08-21T11:30:58.260Z,101649.19
2022-08-21T11:33:46.259Z,101657.31
2022-08-21T11:36:34.240Z,101656.50
2022-08-21T11:39:15.526Z,101664.69
2022-08-21T11:41:55.168Z,101660.22
2022-08-21T11:44:44.613Z,101657.22
2022-08-21T11:47:21.702Z,101659.34
2022-08-21T11:50:32.524Z,101660.41
2022-08-21T11:53:11.317Z,101658.69
2022-08-21T11:55:46.768Z,101663.81
2022-08-21T11:58:22.946Z,101669.34
2022-08-21T12:00:56.057Z,101669.56
2022-08-21T12:03:30.030Z,101660.78
2022-08-21T12:06:02.819Z,101664.38
2022-08-21T12:08:34.968Z,101658.69
2022-08-21T12:11:08.422Z,101658.28
2022-08-21T12:13:42.152Z,101663.28
2022-08-21T12:16:14.852Z,101659.66
2022-08-21T12:18:44.486Z,101666.09
2022-08-21T12:21:28.805Z,101663.28
2022-08-21T12:24:17.990Z,101656.84
2022-08-21T12:26:53.127Z,101668.09
2022-08-21T12:29:27.038Z,101668.50
2022-08-21T12:32:06.261Z,101672.56
2022-08-21T12:34:39.668Z,101671.28
2022-08-21T12:37:20.871Z,101662.66
2022-08-21T12:39:54.235Z,101678.97
2022-08-21T12:42:29.468Z,101679.41
2022-08-21T12:45:02.147Z,101676.84
2022-08-21T12:47:38.447Z,101675.50
2022-08-21T12:50:13.148Z,101677.41
2022-08-21T12:52:56.216Z,101684.97
2022-08-21T12:55:30.318Z,101691.88
2022-08-21T12:57:59.034Z,101692.94
2022-08-21T13:00:31.439Z,101682.53
2022-08-21T13:03:00.634Z,101683.69
2022-08-21T13:05:38.940Z,101684.41
2022-08-21T13:08:12.705Z,101680.66
2022-08-21T13:10:43.077Z,101687.44
2022-08-21T13:13:25.831Z,101687.56
2022-08-21T13:16:00.322Z,101691.16
2022-08-21T13:18:34.943Z,101677.59
2022-08-21T13:21:10.212Z,101688.84
2022-08-21T13:23:40.280Z,101688.31
2022-08-21T13:26:18.601Z,101688.09
2022-08-21T13:28:48.478Z,101685.06
2022-08-21T13:31:24.038Z,101691.41
2022-08-21T13:33:52.633Z,101688.56
2022-08-21T13:36:27.143Z,101685.97
2022-08-21T13:38:57.306Z,101689.59
2022-08-21T13:41:31.109Z,101693.72
2022-08-21T13:44:03.876Z,101686.84
2022-08-21T13:46:36.348Z,101685.91
2022-08-21T13:49:07.865Z,101687.44
2022-08-21T13:51:37.045Z,101693.91
2022-08-21T13:54:24.250Z,101689.13
2022-08-21T13:56:52.625Z,101685.41
2022-08-21T13:59:30.910Z,101680.47
2022-08-21T14:02:02.181Z,101686.13
2022-08-21T14:04:37.795Z,101673.75
2022-08-21T14:07:19.677Z,101679.41
2022-08-21T14:09:49.739Z,101679.53
2022-08-21T14:12:25.677Z,101684.06
2022-08-21T14:14:55.194Z,101683.59
2022-08-21T14:17:33.550Z,101685.72
2022-08-21T14:20:02.783Z,101685.34
2022-08-21T14:22:40.131Z,101676.97
2022-08-21T14:25:14.669Z,101686.84
2022-08-21T14:27:52.318Z,101692.47
2022-08-21T14:30:28.809Z,101683.25
2022-08-21T14:32:58.111Z,101677.72
2022-08-21T14:35:26.668Z,101681.44
2022-08-21T14:37:55.398Z,101682.72
2022-08-21T14:40:27.515Z,101684.94
2022-08-21T14:42:56.165Z,101682.66
2022-08-21T14:45:30.170Z,101681.88
2022-08-21T14:47:59.698Z,101685.69
2022-08-21T14:50:28.455Z,101689.25
2022-08-21T14:52:56.640Z,101691.78
2022-08-21T14:55:26.198Z,101686.84
2022-08-21T14:57:56.917Z,101693.41
2022-08-21T15:00:36.007Z,101691.34
2022-08-21T15:03:07.217Z,101702.81
2022-08-21T15:05:35.422Z,101692.50
2022-08-21T15:08:03.974Z,101698.59
2022-08-21T15:10:41.337Z,101691.34
2022-08-21T15:13:21.297Z,101700.63
2022-08-21T15:15:53.616Z,101700.28
2022-08-21T15:18:22.460Z,101697.06
2022-08-21T15:20:51.224Z,101706.19
2022-08-21T15:23:20.310Z,101700.06
2022-08-21T15:25:51.652Z,101711.16
2022-08-21T15:28:21.435Z,101707.94
2022-08-21T15:30:52.726Z,101716.25
2022-08-21T15:33:22.384Z,101711.00
2022-08-21T15:35:50.664Z,101710.84
2022-08-21T15:38:18.992Z,101713.66
2022-08-21T15:40:52.320Z,101721.78
2022-08-21T15:43:30.643Z,101718.69
2022-08-21T15:46:01.158Z,101718.78
2022-08-21T15:48:30.257Z,101716.16
2022-08-21T15:50:58.441Z,101716.53
2022-08-21T15:53:26.574Z,101719.22
2022-08-21T15:55:56.070Z,101718.06
2022-08-21T15:58:25.755Z,101712.75
2022-08-21T16:00:53.936Z,101714.25
2022-08-21T16:03:22.884Z,101717.50
2022-08-21T16:05:53.344Z,101717.88
2022-08-21T16:08:22.497Z,101723.56
2022-08-21T16:10:51.476Z,101729.06
2022-08-21T16:13:27.779Z,101730.09
2022-08-21T16:15:56.544Z,101714.41
2022-08-21T16:18:26.544Z,101720.81
2022-08-21T16:20:55.019Z,101722.16
2022-08-21T16:23:23.328Z,101720.41
2022-08-21T16:25:52.304Z,101725.75
2022-08-21T16:28:22.566Z,101719.31
2022-08-21T16:30:53.280Z,101726.63
2022-08-21T16:33:28.629Z,101718.16
2022-08-21T16:35:56.854Z,101713.09
2022-08-21T16:38:25.241Z,101721.00
2022-08-21T16:40:53.846Z,101721.78
2022-08-21T16:43:24.931Z,101727.66
2022-08-21T16:45:55.097Z,101722.59
2022-08-21T16:48:24.206Z,101724.69
2022-08-21T16:50:52.626Z,101722.47
2022-08-21T16:53:20.795Z,101725.25
2022-08-21T16:55:49.172Z,101723.44
2022-08-21T16:58:24.761Z,101717.31
2022-08-21T17:00:55.486Z,101719.50
2022-08-21T17:03:33.870Z,101718.19
2022-08-21T17:06:02.338Z,101721.63
2022-08-21T17:08:30.510Z,101721.81
2022-08-21T17:10:59.334Z,101720.78
2022-08-21T17:13:28.568Z,101732.47
2022-08-21T17:15:58.802Z,101726.63
2022-08-21T17:18:27.848Z,101716.03
2022-08-21T17:20:56.711Z,101722.03
2022-08-21T17:23:25.140Z,101731.66
2022-08-21T17:25:55.056Z,101721.88
2022-08-21T17:28:28.900Z,101722.44
2022-08-21T17:31:02.321Z,101719.84
2022-08-21T17:33:45.540Z,101719.59
2022-08-21T17:36:13.797Z,101722.44
2022-08-21T17:38:44.212Z,101713.25
2022-08-21T17:41:13.122Z,101724.34
2022-08-21T17:43:42.715Z,101719.88
2022-08-21T17:46:16.242Z,101729.03
2022-08-21T17:48:47.257Z,101732.94
2022-08-21T17:51:16.944Z,101725.91
2022-08-21T17:53:46.092Z,101719.19
2022-08-21T17:56:16.295Z,101725.31
2022-08-21T17:58:48.391Z,101725.25
2022-08-21T18:01:19.153Z,101724.06
2022-08-21T18:03:48.037Z,101723.72
2022-08-21T18:06:18.279Z,101737.28
2022-08-21T18:08:46.993Z,101728.75
2022-08-21T18:11:23.792Z,101724.81
2022-08-21T18:13:55.184Z,101729.66
2022-08-21T18:16:25.028Z,101723.25
2022-08-21T18:18:53.514Z,101729.03
2022-08-21T18:21:21.877Z,101732.78
2022-08-21T18:23:50.625Z,101739.09
2022-08-21T18:26:28.851Z,101727.53
2022-08-21T18:29:00.442Z,101744.25
2022-08-21T18:31:33.794Z,101737.00
2022-08-21T18:34:07.081Z,101738.16
2022-08-21T18:36:35.505Z,101744.06
2022-08-21T18:39:32.709Z,101740.59
2022-08-21T18:41:53.056Z,101735.38
2022-08-21T18:44:24.711Z,101738.63
2022-08-21T18:46:59.222Z,101741.53
2022-08-21T18:49:28.213Z,101734.09
2022-08-21T18:51:57.466Z,101744.44
2022-08-21T18:54:26.468Z,101742.13
2022-08-21T18:56:55.317Z,101738.72
2022-08-21T18:59:26.772Z,101742.91
2022-08-21T19:01:56.796Z,101748.34
2022-08-21T19:04:43.596Z,101747.22
2022-08-21T19:07:13.612Z,101751.97
2022-08-21T19:09:52.740Z,101752.13
2022-08-21T19:12:31.072Z,101757.28
2022-08-21T19:15:00.638Z,101756.41
2022-08-21T19:17:30.883Z,101755.09
2022-08-21T19:20:05.880Z,101748.94
2022-08-21T19:22:34.464Z,101752.97
2022-08-21T19:25:02.985Z,101753.53
2022-08-21T19:27:31.488Z,101753.50
2022-08-21T19:30:00.349Z,101757.06
2022-08-21T19:32:31.573Z,101769.00
2022-08-21T19:35:00.283Z,101759.31
2022-08-21T19:37:29.112Z,101763.66
2022-08-21T19:39:59.078Z,101769.94
2022-08-21T19:42:30.877Z,101766.91
2022-08-21T19:44:59.601Z,101779.13
2022-08-21T19:47:31.328Z,101775.91
2022-08-21T19:50:03.851Z,101778.25
2022-08-21T19:52:51.480Z,101774.31
2022-08-21T19:55:20.288Z,101776.19
2022-08-21T19:57:54.717Z,101778.44
2022-08-21T20:00:24.195Z,101778.88
2022-08-21T20:02:54.268Z,101779.41
2022-08-21T20:05:22.952Z,101778.75
2022-08-21T20:07:51.375Z,101774.03
2022-08-21T20:10:19.893Z,101783.88
2022-08-21T20:12:51.494Z,101786.84
2022-08-21T20:15:23.025Z,101788.00
2022-08-21T20:17:53.615Z,101785.00
2022-08-21T20:20:21.905Z,101794.72
2022-08-21T20:22:50.364Z,101784.06
2022-08-21T20:25:21.271Z,101805.56
2022-08-21T20:27:49.789Z,101798.09
2022-08-21T20:30:22.719Z,101796.91
2022-08-21T20:32:51.674Z,101791.47
2022-08-21T20:35:23.033Z,101794.38
2022-08-21T20:40:40.585Z,101803.81
2022-08-21T20:43:12.829Z,101793.91
2022-08-21T20:45:42.155Z,101796.53
2022-08-21T20:48:15.361Z,101800.31
2022-08-21T20:50:49.749Z,101805.09
2022-08-21T20:53:32.164Z,101801.31
2022-08-21T20:56:18.767Z,101805.34
2022-08-21T20:58:57.906Z,101791.94
2022-08-21T21:01:26.876Z,101792.34
2022-08-21T21:04:03.141Z,101798.69
2022-08-21T21:06:34.660Z,101799.88
2022-08-21T21:09:11.163Z,101798.06
2022-08-21T21:11:56.052Z,101804.28
2022-08-21T21:14:39.175Z,101813.06
2022-08-21T21:17:14.567Z,101812.44
2022-08-21T21:19:49.008Z,101806.25
2022-08-21T21:22:23.100Z,101812.91
2022-08-21T21:25:00.864Z,101812.41
2022-08-21T21:27:37.498Z,101804.75
2022-08-21T21:30:12.382Z,101809.31
2022-08-21T21:32:42.881Z,101806.09
2022-08-21T21:35:17.074Z,101819.22
2022-08-21T21:38:12.567Z,101820.47
2022-08-21T21:40:58.219Z,101816.50
2022-08-21T21:44:23.384Z,101820.47
2022-08-21T21:47:02.728Z,101828.78
2022-08-21T21:49:51.291Z,101833.09
2022-08-21T21:52:41.922Z,101825.66
2022-08-21T21:55:33.109Z,101833.38
2022-08-21T21:58:33.371Z,101834.34
2022-08-21T22:01:12.649Z,101835.88
2022-08-21T22:03:48.303Z,101829.44
2022-08-21T22:06:20.806Z,101829.91
2022-08-21T22:09:05.175Z,101831.09
2022-08-21T22:11:55.743Z,101828.75
2022-08-21T22:14:32.106Z,101836.28
2022-08-21T22:17:28.237Z,101835.91
2022-08-21T22:19:58.432Z,101820.78
2022-08-21T22:22:30.437Z,101826.00
2022-08-21T22:25:06.445Z,101820.31
2022-08-21T22:27:40.870Z,101823.53
2022-08-21T22:30:17.522Z,101821.06
2022-08-21T22:32:50.384Z,101823.06
2022-08-21T22:35:26.567Z,101819.34
2022-08-21T22:37:58.675Z,101817.00
2022-08-21T22:40:30.466Z,101821.47
2022-08-21T22:43:03.626Z,101820.00
2022-08-21T22:45:58.751Z,101814.41
2022-08-21T22:48:29.862Z,101807.50
2022-08-21T22:51:06.848Z,101815.91
2022-08-21T22:53:40.768Z,101818.13
2022-08-21T22:56:11.515Z,101816.03
2022-08-21T22:58:56.455Z,101824.34
2022-08-21T23:01:40.822Z,101809.72
2022-08-21T23:04:22.510Z,101820.66
2022-08-21T23:06:55.311Z,101819.38
2022-08-21T23:09:35.876Z,101827.34
2022-08-21T23:12:21.103Z,101828.31
2022-08-21T23:14:54.679Z,101814.72
2022-08-21T23:17:39.389Z,101816.81
2022-08-21T23:20:18.104Z,101807.78
2022-08-21T23:23:08.913Z,101810.38
2022-08-21T23:26:22.771Z,101815.94
2022-08-21T23:29:24.911Z,101821.63
2022-08-21T23:32:05.156Z,101815.19
2022-08-21T23:34:46.074Z,101811.25
2022-08-21T23:37:51.334Z,101820.38
2022-08-21T23:40:50.939Z,101810.63
2022-08-21T23:43:44.806Z,101820.88
2022-08-21T23:46:46.159Z,101811.00
2022-08-21T23:49:30.603Z,101816.91
2022-08-21T23:52:15.824Z,101823.81
2022-08-21T23:55:04.553Z,101820.84
2022-08-21T23:57:50.971Z,101817.25
